sensor_id;sensor_type;location;lat;lon;timestamp;temperature;humidity
35680;DHT22;21803;53.586;10.040;2023-04-27T04:00:38;20.20;38.70
35680;DHT22;21803;53.586;10.040;2023-04-27T04:03:04;23.30;40.20
35680;DHT22;21803;53.586;10.040;2023-04-27T04:05:31;22.00;39.50
35680;DHT22;21803;53.586;10.040;2023-04-27T04:07:56;20.20;38.60
35680;DHT22;21803;53.586;10.040;2023-04-27T04:10:22;20.20;38.60
35680;DHT22;21803;53.586;10.040;2023-04-27T04:15:16;20.20;38.70
35680;DHT22;21803;53.586;10.040;2023-04-27T04:17:43;20.20;38.70
35680;DHT22;21803;53.586;10.040;2023-04-27T04:20:08;21.50;39.30
35680;DHT22;21803;53.586;10.040;2023-04-27T04:22:36;20.20;38.60
35680;DHT22;21803;53.586;10.040;2023-04-27T04:25:01;20.20;38.60
35680;DHT22;21803;53.586;10.040;2023-04-27T04:27:28;20.30;38.60
35680;DHT22;21803;53.586;10.040;2023-04-27T04:29:53;20.20;38.50
35680;DHT22;21803;53.586;10.040;2023-04-27T04:32:20;20.30;38.60
35680;DHT22;21803;53.586;10.040;2023-04-27T04:34:50;20.30;38.50
35680;DHT22;21803;53.586;10.040;2023-04-27T04:37:16;20.30;38.50
35680;DHT22;21803;53.586;10.040;2023-04-27T04:39:43;20.30;38.50
35680;DHT22;21803;53.586;10.040;2023-04-27T04:42:09;20.30;38.40
35680;DHT22;21803;53.586;10.040;2023-04-27T04:44:34;20.30;38.50
35680;DHT22;21803;53.586;10.040;2023-04-27T04:47:00;20.30;38.50
35680;DHT22;21803;53.586;10.040;2023-04-27T04:49:25;20.30;39.10
35680;DHT22;21803;53.586;10.040;2023-04-27T04:51:51;20.30;38.50
35680;DHT22;21803;53.586;10.040;2023-04-27T04:54:16;20.30;38.50
35680;DHT22;21803;53.586;10.040;2023-04-27T04:56:42;20.30;38.50
35680;DHT22;21803;53.586;10.040;2023-04-27T04:59:07;20.30;38.50
35680;DHT22;21803;53.586;10.040;2023-04-27T05:01:33;20.30;38.50
35680;DHT22;21803;53.586;10.040;2023-04-27T05:03:58;20.30;38.50
35680;DHT22;21803;53.586;10.040;2023-04-27T05:06:24;20.30;38.50
35680;DHT22;21803;53.586;10.040;2023-04-27T05:08:50;20.40;38.50
35680;DHT22;21803;53.586;10.040;2023-04-27T05:11:16;20.30;38.50
35680;DHT22;21803;53.586;10.040;2023-04-27T05:13:41;20.30;38.50
35680;DHT22;21803;53.586;10.040;2023-04-27T05:16:07;20.30;38.50
35680;DHT22;21803;53.586;10.040;2023-04-27T05:18:33;20.30;38.50
35680;DHT22;21803;53.586;10.040;2023-04-27T05:20:59;20.30;38.50
35680;DHT22;21803;53.586;10.040;2023-04-27T05:23:24;20.30;38.50
35680;DHT22;21803;53.586;10.040;2023-04-27T05:25:50;20.30;38.50
35680;DHT22;21803;53.586;10.040;2023-04-27T05:28:16;20.30;38.50
35680;DHT22;21803;53.586;10.040;2023-04-27T05:30:42;20.30;38.60
35680;DHT22;21803;53.586;10.040;2023-04-27T05:33:07;20.40;38.60
35680;DHT22;21803;53.586;10.040;2023-04-27T05:35:33;20.40;38.50
35680;DHT22;21803;53.586;10.040;2023-04-27T05:37:59;20.40;38.50
35680;DHT22;21803;53.586;10.040;2023-04-27T05:40:25;20.50;38.50
35680;DHT22;21803;53.586;10.040;2023-04-27T05:42:51;20.50;38.50
35680;DHT22;21803;53.586;10.040;2023-04-27T05:45:16;20.50;38.60
35680;DHT22;21803;53.586;10.040;2023-04-27T05:47:42;20.50;38.50
35680;DHT22;21803;53.586;10.040;2023-04-27T05:50:08;20.50;38.50
35680;DHT22;21803;53.586;10.040;2023-04-27T05:52:33;20.60;38.50
35680;DHT22;21803;53.586;10.040;2023-04-27T05:54:59;20.60;38.50
35680;DHT22;21803;53.586;10.040;2023-04-27T05:57:25;20.60;38.50
35680;DHT22;21803;53.586;10.040;2023-04-27T05:59:51;20.60;38.50
35680;DHT22;21803;53.586;10.040;2023-04-27T06:02:17;20.60;38.50
35680;DHT22;21803;53.586;10.040;2023-04-27T06:04:44;20.60;38.50
35680;DHT22;21803;53.586;10.040;2023-04-27T06:07:13;20.70;38.60
35680;DHT22;21803;53.586;10.040;2023-04-27T06:09:40;20.70;38.50
35680;DHT22;21803;53.586;10.040;2023-04-27T06:12:07;20.70;38.50
35680;DHT22;21803;53.586;10.040;2023-04-27T06:14:34;20.70;38.50
35680;DHT22;21803;53.586;10.040;2023-04-27T06:17:00;20.80;38.50
35680;DHT22;21803;53.586;10.040;2023-04-27T06:19:26;20.80;38.50
35680;DHT22;21803;53.586;10.040;2023-04-27T06:21:55;20.80;38.50
35680;DHT22;21803;53.586;10.040;2023-04-27T06:24:21;20.80;38.50
35680;DHT22;21803;53.586;10.040;2023-04-27T06:26:48;20.80;38.50
35680;DHT22;21803;53.586;10.040;2023-04-27T06:29:13;20.80;38.50
35680;DHT22;21803;53.586;10.040;2023-04-27T06:31:39;20.80;38.50
35680;DHT22;21803;53.586;10.040;2023-04-27T06:34:05;20.80;38.50
35680;DHT22;21803;53.586;10.040;2023-04-27T06:36:31;20.80;38.50
35680;DHT22;21803;53.586;10.040;2023-04-27T06:38:57;20.80;38.50
35680;DHT22;21803;53.586;10.040;2023-04-27T06:41:24;20.90;38.60
35680;DHT22;21803;53.586;10.040;2023-04-27T06:43:50;20.80;38.60
35680;DHT22;21803;53.586;10.040;2023-04-27T06:46:16;20.80;38.60
35680;DHT22;21803;53.586;10.040;2023-04-27T06:48:42;20.80;38.60
35680;DHT22;21803;53.586;10.040;2023-04-27T06:51:07;20.70;38.60
35680;DHT22;21803;53.586;10.040;2023-04-27T06:53:33;20.80;38.60
35680;DHT22;21803;53.586;10.040;2023-04-27T06:55:58;20.80;38.70
35680;DHT22;21803;53.586;10.040;2023-04-27T06:58:24;20.80;38.70
35680;DHT22;21803;53.586;10.040;2023-04-27T07:00:50;20.80;38.70
35680;DHT22;21803;53.586;10.040;2023-04-27T07:03:16;20.80;38.70
35680;DHT22;21803;53.586;10.040;2023-04-27T07:05:41;20.80;38.80
35680;DHT22;21803;53.586;10.040;2023-04-27T07:08:07;20.80;38.70
35680;DHT22;21803;53.586;10.040;2023-04-27T07:10:32;20.80;38.80
35680;DHT22;21803;53.586;10.040;2023-04-27T07:12:58;20.80;38.80
35680;DHT22;21803;53.586;10.040;2023-04-27T07:15:24;20.70;38.80
35680;DHT22;21803;53.586;10.040;2023-04-27T07:17:51;20.70;38.80
35680;DHT22;21803;53.586;10.040;2023-04-27T07:20:18;20.80;38.90
35680;DHT22;21803;53.586;10.040;2023-04-27T07:22:44;20.70;38.90
35680;DHT22;21803;53.586;10.040;2023-04-27T07:25:09;20.70;39.00
35680;DHT22;21803;53.586;10.040;2023-04-27T07:27:35;20.70;39.00
35680;DHT22;21803;53.586;10.040;2023-04-27T07:30:01;20.70;39.00
35680;DHT22;21803;53.586;10.040;2023-04-27T07:32:26;20.70;39.00
35680;DHT22;21803;53.586;10.040;2023-04-27T07:34:54;20.70;39.00
35680;DHT22;21803;53.586;10.040;2023-04-27T07:37:20;20.70;39.00
35680;DHT22;21803;53.586;10.040;2023-04-27T07:39:48;20.70;39.00
35680;DHT22;21803;53.586;10.040;2023-04-27T07:42:14;20.70;39.00
35680;DHT22;21803;53.586;10.040;2023-04-27T07:44:40;20.70;39.00
35680;DHT22;21803;53.586;10.040;2023-04-27T07:47:06;20.70;39.10
35680;DHT22;21803;53.586;10.040;2023-04-27T07:49:32;20.60;39.00
35680;DHT22;21803;53.586;10.040;2023-04-27T07:51:59;20.70;39.00
35680;DHT22;21803;53.586;10.040;2023-04-27T07:54:24;20.70;39.00
35680;DHT22;21803;53.586;10.040;2023-04-27T07:56:50;20.70;39.00
35680;DHT22;21803;53.586;10.040;2023-04-27T07:59:16;20.70;39.10
35680;DHT22;21803;53.586;10.040;2023-04-27T08:01:41;20.70;39.00
35680;DHT22;21803;53.586;10.040;2023-04-27T08:04:07;20.70;39.10
35680;DHT22;21803;53.586;10.040;2023-04-27T08:06:32;20.70;39.10
35680;DHT22;21803;53.586;10.040;2023-04-27T08:08:58;20.70;39.10
35680;DHT22;21803;53.586;10.040;2023-04-27T08:11:25;20.70;39.00
35680;DHT22;21803;53.586;10.040;2023-04-27T08:13:51;20.70;39.00
35680;DHT22;21803;53.586;10.040;2023-04-27T08:16:16;20.70;39.10
35680;DHT22;21803;53.586;10.040;2023-04-27T08:18:43;20.70;39.00
35680;DHT22;21803;53.586;10.040;2023-04-27T08:21:08;20.70;39.00
35680;DHT22;21803;53.586;10.040;2023-04-27T08:23:34;20.70;39.00
35680;DHT22;21803;53.586;10.040;2023-04-27T08:26:01;20.70;39.10
35680;DHT22;21803;53.586;10.040;2023-04-27T08:28:27;20.60;39.60
35680;DHT22;21803;53.586;10.040;2023-04-27T08:30:52;20.70;39.10
35680;DHT22;21803;53.586;10.040;2023-04-27T08:33:18;20.60;39.00
35680;DHT22;21803;53.586;10.040;2023-04-27T08:35:43;20.60;39.00
35680;DHT22;21803;53.586;10.040;2023-04-27T08:38:09;20.70;39.10
35680;DHT22;21803;53.586;10.040;2023-04-27T08:40:35;20.70;39.70
35680;DHT22;21803;53.586;10.040;2023-04-27T08:43:00;20.60;39.10
35680;DHT22;21803;53.586;10.040;2023-04-27T08:45:26;20.60;39.10
35680;DHT22;21803;53.586;10.040;2023-04-27T08:47:52;20.70;39.10
35680;DHT22;21803;53.586;10.040;2023-04-27T08:50:18;20.50;39.00
35680;DHT22;21803;53.586;10.040;2023-04-27T08:52:45;20.60;39.10
35680;DHT22;21803;53.586;10.040;2023-04-27T08:55:11;20.60;39.10
35680;DHT22;21803;53.586;10.040;2023-04-27T08:57:37;20.60;39.10
35680;DHT22;21803;53.586;10.040;2023-04-27T09:00:03;20.60;39.10
35680;DHT22;21803;53.586;10.040;2023-04-27T09:02:45;20.60;39.10
35680;DHT22;21803;53.586;10.040;2023-04-27T09:05:18;20.60;39.10
35680;DHT22;21803;53.586;10.040;2023-04-27T09:08:01;20.60;39.10
35680;DHT22;21803;53.586;10.040;2023-04-27T09:10:30;20.60;39.10
35680;DHT22;21803;53.586;10.040;2023-04-27T09:13:07;20.60;39.10
35680;DHT22;21803;53.586;10.040;2023-04-27T09:15:44;20.60;39.70
35680;DHT22;21803;53.586;10.040;2023-04-27T09:18:19;20.60;39.10
35680;DHT22;21803;53.586;10.040;2023-04-27T09:20:50;20.60;39.10
35680;DHT22;21803;53.586;10.040;2023-04-27T09:23:35;20.60;39.10
35680;DHT22;21803;53.586;10.040;2023-04-27T09:26:03;20.60;39.10
35680;DHT22;21803;53.586;10.040;2023-04-27T09:28:33;20.60;39.10
35680;DHT22;21803;53.586;10.040;2023-04-27T09:31:00;20.60;39.10
35680;DHT22;21803;53.586;10.040;2023-04-27T09:33:34;20.60;39.10
35680;DHT22;21803;53.586;10.040;2023-04-27T09:36:02;20.60;39.10
35680;DHT22;21803;53.586;10.040;2023-04-27T09:38:28;20.60;39.10
35680;DHT22;21803;53.586;10.040;2023-04-27T09:40:54;20.60;39.00
35680;DHT22;21803;53.586;10.040;2023-04-27T09:43:21;20.60;39.00
35680;DHT22;21803;53.586;10.040;2023-04-27T09:45:48;20.60;39.00
35680;DHT22;21803;53.586;10.040;2023-04-27T09:48:14;20.60;39.00
35680;DHT22;21803;53.586;10.040;2023-04-27T09:50:41;20.60;39.00
35680;DHT22;21803;53.586;10.040;2023-04-27T09:53:19;20.60;39.00
35680;DHT22;21803;53.586;10.040;2023-04-27T09:55:55;20.60;39.00
35680;DHT22;21803;53.586;10.040;2023-04-27T10:09:26;20.60;39.00
35680;DHT22;21803;53.586;10.040;2023-04-27T10:11:54;20.60;38.90
35680;DHT22;21803;53.586;10.040;2023-04-27T10:14:22;20.60;38.90
35680;DHT22;21803;53.586;10.040;2023-04-27T10:16:56;23.80;40.50
35680;DHT22;21803;53.586;10.040;2023-04-27T10:19:23;22.70;40.00
35680;DHT22;21803;53.586;10.040;2023-04-27T10:21:55;20.60;38.90
35680;DHT22;21803;53.586;10.040;2023-04-27T10:24:40;20.60;39.00
35680;DHT22;21803;53.586;10.040;2023-04-27T10:27:10;20.60;38.90
35680;DHT22;21803;53.586;10.040;2023-04-27T10:29:41;20.60;38.90
35680;DHT22;21803;53.586;10.040;2023-04-27T10:32:22;20.60;38.90
35680;DHT22;21803;53.586;10.040;2023-04-27T10:34:49;20.50;38.80
35680;DHT22;21803;53.586;10.040;2023-04-27T10:37:15;20.60;38.90
35680;DHT22;21803;53.586;10.040;2023-04-27T10:39:43;20.60;38.90
35680;DHT22;21803;53.586;10.040;2023-04-27T10:42:09;20.60;38.90
35680;DHT22;21803;53.586;10.040;2023-04-27T10:44:36;20.60;38.90
35680;DHT22;21803;53.586;10.040;2023-04-27T10:47:16;20.60;38.90
35680;DHT22;21803;53.586;10.040;2023-04-27T10:49:44;20.70;39.60
35680;DHT22;21803;53.586;10.040;2023-04-27T10:52:10;20.60;38.90
35680;DHT22;21803;53.586;10.040;2023-04-27T10:54:36;20.60;38.90
35680;DHT22;21803;53.586;10.040;2023-04-27T10:57:09;20.50;38.90
35680;DHT22;21803;53.586;10.040;2023-04-27T10:59:54;20.60;38.90
35680;DHT22;21803;53.586;10.040;2023-04-27T11:02:27;20.60;39.00
35680;DHT22;21803;53.586;10.040;2023-04-27T11:04:54;20.60;38.90
35680;DHT22;21803;53.586;10.040;2023-04-27T11:07:26;20.60;38.90
35680;DHT22;21803;53.586;10.040;2023-04-27T11:09:52;20.60;38.90
35680;DHT22;21803;53.586;10.040;2023-04-27T11:12:18;20.50;38.90
35680;DHT22;21803;53.586;10.040;2023-04-27T11:14:44;20.60;38.90
35680;DHT22;21803;53.586;10.040;2023-04-27T11:17:10;20.60;38.90
35680;DHT22;21803;53.586;10.040;2023-04-27T11:19:47;20.50;38.90
35680;DHT22;21803;53.586;10.040;2023-04-27T11:22:14;20.60;39.00
35680;DHT22;21803;53.586;10.040;2023-04-27T11:24:47;20.50;38.90
35680;DHT22;21803;53.586;10.040;2023-04-27T11:27:13;20.60;38.90
35680;DHT22;21803;53.586;10.040;2023-04-27T11:29:39;20.60;38.90
35680;DHT22;21803;53.586;10.040;2023-04-27T11:32:05;20.60;38.90
35680;DHT22;21803;53.586;10.040;2023-04-27T11:34:31;20.60;38.90
35680;DHT22;21803;53.586;10.040;2023-04-27T11:37:03;20.60;38.90
35680;DHT22;21803;53.586;10.040;2023-04-27T11:39:34;20.60;38.90
35680;DHT22;21803;53.586;10.040;2023-04-27T11:42:20;20.60;39.50
35680;DHT22;21803;53.586;10.040;2023-04-27T11:44:54;20.60;39.10
35680;DHT22;21803;53.586;10.040;2023-04-27T11:47:20;20.60;38.90
35680;DHT22;21803;53.586;10.040;2023-04-27T11:49:51;20.60;38.90
35680;DHT22;21803;53.586;10.040;2023-04-27T11:52:19;20.60;38.90
35680;DHT22;21803;53.586;10.040;2023-04-27T11:54:50;20.60;38.80
35680;DHT22;21803;53.586;10.040;2023-04-27T11:57:26;20.60;38.80
35680;DHT22;21803;53.586;10.040;2023-04-27T11:59:53;20.60;38.80
35680;DHT22;21803;53.586;10.040;2023-04-27T12:02:19;20.50;38.80
35680;DHT22;21803;53.586;10.040;2023-04-27T12:04:46;20.60;38.80
35680;DHT22;21803;53.586;10.040;2023-04-27T12:07:13;20.60;38.80
35680;DHT22;21803;53.586;10.040;2023-04-27T12:09:38;20.60;38.80
35680;DHT22;21803;53.586;10.040;2023-04-27T12:12:04;20.60;38.90
35680;DHT22;21803;53.586;10.040;2023-04-27T12:14:30;20.60;38.90
35680;DHT22;21803;53.586;10.040;2023-04-27T12:16:56;20.60;38.90
35680;DHT22;21803;53.586;10.040;2023-04-27T12:19:22;20.60;38.90
35680;DHT22;21803;53.586;10.040;2023-04-27T12:21:50;20.50;38.80
35680;DHT22;21803;53.586;10.040;2023-04-27T12:24:15;20.60;38.90
35680;DHT22;21803;53.586;10.040;2023-04-27T12:26:41;20.50;38.90
35680;DHT22;21803;53.586;10.040;2023-04-27T12:29:06;20.60;38.90
35680;DHT22;21803;53.586;10.040;2023-04-27T12:31:32;20.60;38.90
35680;DHT22;21803;53.586;10.040;2023-04-27T12:33:58;20.60;38.90
35680;DHT22;21803;53.586;10.040;2023-04-27T12:36:23;20.60;38.80
35680;DHT22;21803;53.586;10.040;2023-04-27T12:38:50;20.60;38.80
35680;DHT22;21803;53.586;10.040;2023-04-27T12:41:16;20.60;38.80
35680;DHT22;21803;53.586;10.040;2023-04-27T12:43:41;20.60;38.90
35680;DHT22;21803;53.586;10.040;2023-04-27T12:46:07;20.60;38.90
35680;DHT22;21803;53.586;10.040;2023-04-27T12:48:33;20.50;38.80
35680;DHT22;21803;53.586;10.040;2023-04-27T12:50:59;20.60;38.80
35680;DHT22;21803;53.586;10.040;2023-04-27T12:53:24;20.60;38.80
35680;DHT22;21803;53.586;10.040;2023-04-27T12:55:50;20.60;38.80
35680;DHT22;21803;53.586;10.040;2023-04-27T12:58:16;20.60;38.80
35680;DHT22;21803;53.586;10.040;2023-04-27T13:00:41;20.60;38.80
35680;DHT22;21803;53.586;10.040;2023-04-27T13:03:07;20.60;38.80
35680;DHT22;21803;53.586;10.040;2023-04-27T13:05:32;20.60;38.80
35680;DHT22;21803;53.586;10.040;2023-04-27T13:07:58;20.60;38.80
35680;DHT22;21803;53.586;10.040;2023-04-27T13:10:23;20.60;38.80
35680;DHT22;21803;53.586;10.040;2023-04-27T13:12:49;20.60;38.80
35680;DHT22;21803;53.586;10.040;2023-04-27T13:15:15;20.60;38.80
35680;DHT22;21803;53.586;10.040;2023-04-27T13:17:40;20.50;38.80
35680;DHT22;21803;53.586;10.040;2023-04-27T13:20:06;20.60;38.80
35680;DHT22;21803;53.586;10.040;2023-04-27T13:22:33;20.60;38.80
35680;DHT22;21803;53.586;10.040;2023-04-27T13:24:58;20.60;38.80
35680;DHT22;21803;53.586;10.040;2023-04-27T13:27:24;20.50;38.80
35680;DHT22;21803;53.586;10.040;2023-04-27T13:29:52;20.60;38.80
35680;DHT22;21803;53.586;10.040;2023-04-27T13:32:18;20.60;38.80
35680;DHT22;21803;53.586;10.040;2023-04-27T13:34:43;20.50;38.70
35680;DHT22;21803;53.586;10.040;2023-04-27T13:37:09;20.50;38.80
35680;DHT22;21803;53.586;10.040;2023-04-27T13:39:34;20.50;38.70
35680;DHT22;21803;53.586;10.040;2023-04-27T13:42:02;20.50;38.80
35680;DHT22;21803;53.586;10.040;2023-04-27T13:44:27;20.50;38.80
35680;DHT22;21803;53.586;10.040;2023-04-27T13:46:53;20.50;38.80
35680;DHT22;21803;53.586;10.040;2023-04-27T13:49:18;20.50;38.80
35680;DHT22;21803;53.586;10.040;2023-04-27T13:51:44;20.50;38.80
35680;DHT22;21803;53.586;10.040;2023-04-27T13:54:09;20.50;38.80
35680;DHT22;21803;53.586;10.040;2023-04-27T13:56:35;20.50;38.80
35680;DHT22;21803;53.586;10.040;2023-04-27T13:59:02;20.50;38.80
35680;DHT22;21803;53.586;10.040;2023-04-27T14:01:28;20.50;38.90
35680;DHT22;21803;53.586;10.040;2023-04-27T14:03:53;20.50;38.90
35680;DHT22;21803;53.586;10.040;2023-04-27T14:06:19;20.50;38.80
35680;DHT22;21803;53.586;10.040;2023-04-27T14:08:45;20.50;38.80
35680;DHT22;21803;53.586;10.040;2023-04-27T14:11:11;20.50;38.80
35680;DHT22;21803;53.586;10.040;2023-04-27T14:13:37;20.50;38.80
35680;DHT22;21803;53.586;10.040;2023-04-27T14:16:03;20.50;38.80
35680;DHT22;21803;53.586;10.040;2023-04-27T14:18:28;20.50;38.80
35680;DHT22;21803;53.586;10.040;2023-04-27T14:20:54;20.50;38.90
35680;DHT22;21803;53.586;10.040;2023-04-27T14:23:20;20.50;38.80
35680;DHT22;21803;53.586;10.040;2023-04-27T14:25:46;20.50;39.50
35680;DHT22;21803;53.586;10.040;2023-04-27T14:28:12;20.50;38.90
35680;DHT22;21803;53.586;10.040;2023-04-27T14:30:39;20.50;38.90
35680;DHT22;21803;53.586;10.040;2023-04-27T14:33:05;20.50;38.90
35680;DHT22;21803;53.586;10.040;2023-04-27T14:35:33;20.60;39.00
35680;DHT22;21803;53.586;10.040;2023-04-27T14:37:58;20.50;39.00
35680;DHT22;21803;53.586;10.040;2023-04-27T14:40:27;20.60;38.90
35680;DHT22;21803;53.586;10.040;2023-04-27T14:42:53;20.60;39.00
35680;DHT22;21803;53.586;10.040;2023-04-27T14:45:18;20.50;38.90
35680;DHT22;21803;53.586;10.040;2023-04-27T14:47:44;20.50;38.90
35680;DHT22;21803;53.586;10.040;2023-04-27T14:50:10;20.60;39.00
35680;DHT22;21803;53.586;10.040;2023-04-27T14:52:36;20.60;39.00
35680;DHT22;21803;53.586;10.040;2023-04-27T14:55:01;20.50;38.90
35680;DHT22;21803;53.586;10.040;2023-04-27T14:57:27;20.50;39.00
35680;DHT22;21803;53.586;10.040;2023-04-27T14:59:52;20.60;39.00
35680;DHT22;21803;53.586;10.040;2023-04-27T15:02:18;20.60;39.00
35680;DHT22;21803;53.586;10.040;2023-04-27T15:04:43;20.60;39.00
35680;DHT22;21803;53.586;10.040;2023-04-27T15:07:09;20.50;39.00
35680;DHT22;21803;53.586;10.040;2023-04-27T15:09:35;20.50;39.00
35680;DHT22;21803;53.586;10.040;2023-04-27T15:12:00;20.50;39.00
35680;DHT22;21803;53.586;10.040;2023-04-27T15:14:27;20.50;38.90
35680;DHT22;21803;53.586;10.040;2023-04-27T15:16:53;20.60;39.00
35680;DHT22;21803;53.586;10.040;2023-04-27T15:19:18;20.50;38.90
35680;DHT22;21803;53.586;10.040;2023-04-27T15:21:44;20.50;38.90
35680;DHT22;21803;53.586;10.040;2023-04-27T15:24:10;20.50;38.90
35680;DHT22;21803;53.586;10.040;2023-04-27T15:26:35;20.50;38.90
35680;DHT22;21803;53.586;10.040;2023-04-27T15:29:01;20.50;38.90
35680;DHT22;21803;53.586;10.040;2023-04-27T15:31:26;20.50;38.90
35680;DHT22;21803;53.586;10.040;2023-04-27T15:33:52;20.50;38.90
35680;DHT22;21803;53.586;10.040;2023-04-27T15:36:20;20.50;38.90
35680;DHT22;21803;53.586;10.040;2023-04-27T15:38:47;20.60;38.90
35680;DHT22;21803;53.586;10.040;2023-04-27T15:41:13;20.50;38.90
35680;DHT22;21803;53.586;10.040;2023-04-27T15:43:39;20.50;38.90
35680;DHT22;21803;53.586;10.040;2023-04-27T15:46:05;20.50;38.90
35680;DHT22;21803;53.586;10.040;2023-04-27T15:48:31;20.50;38.90
35680;DHT22;21803;53.586;10.040;2023-04-27T15:50:56;20.50;38.90
35680;DHT22;21803;53.586;10.040;2023-04-27T15:53:22;20.50;38.90
35680;DHT22;21803;53.586;10.040;2023-04-27T15:55:47;20.50;38.90
35680;DHT22;21803;53.586;10.040;2023-04-27T15:58:14;20.50;38.90
35680;DHT22;21803;53.586;10.040;2023-04-27T16:00:40;20.50;38.90
35680;DHT22;21803;53.586;10.040;2023-04-27T16:03:05;20.50;38.80
35680;DHT22;21803;53.586;10.040;2023-04-27T16:05:32;20.50;38.90
35680;DHT22;21803;53.586;10.040;2023-04-27T16:07:58;20.50;38.90
35680;DHT22;21803;53.586;10.040;2023-04-27T16:10:23;20.50;38.90
35680;DHT22;21803;53.586;10.040;2023-04-27T16:12:49;20.50;38.90
35680;DHT22;21803;53.586;10.040;2023-04-27T16:15:14;20.50;38.90
35680;DHT22;21803;53.586;10.040;2023-04-27T16:17:40;20.50;38.90
35680;DHT22;21803;53.586;10.040;2023-04-27T16:20:06;20.50;38.90
35680;DHT22;21803;53.586;10.040;2023-04-27T16:22:33;20.50;38.90
35680;DHT22;21803;53.586;10.040;2023-04-27T16:24:59;20.50;38.90
35680;DHT22;21803;53.586;10.040;2023-04-27T16:27:24;20.50;38.90
35680;DHT22;21803;53.586;10.040;2023-04-27T16:29:50;20.50;38.90
35680;DHT22;21803;53.586;10.040;2023-04-27T16:32:16;20.50;38.90
35680;DHT22;21803;53.586;10.040;2023-04-27T16:34:44;20.50;38.90
35680;DHT22;21803;53.586;10.040;2023-04-27T16:37:10;20.50;39.00
35680;DHT22;21803;53.586;10.040;2023-04-27T16:39:35;20.50;39.00
35680;DHT22;21803;53.586;10.040;2023-04-27T16:42:02;20.50;38.90
35680;DHT22;21803;53.586;10.040;2023-04-27T16:44:27;20.50;38.90
35680;DHT22;21803;53.586;10.040;2023-04-27T16:46:53;20.50;38.90
35680;DHT22;21803;53.586;10.040;2023-04-27T16:49:19;20.60;39.00
35680;DHT22;21803;53.586;10.040;2023-04-27T16:51:44;20.50;38.90
35680;DHT22;21803;53.586;10.040;2023-04-27T16:54:10;20.50;38.90
35680;DHT22;21803;53.586;10.040;2023-04-27T16:56:37;20.50;38.90
35680;DHT22;21803;53.586;10.040;2023-04-27T16:59:02;20.50;38.90
35680;DHT22;21803;53.586;10.040;2023-04-27T17:01:29;20.50;38.90
35680;DHT22;21803;53.586;10.040;2023-04-27T17:03:58;20.50;39.00
35680;DHT22;21803;53.586;10.040;2023-04-27T17:06:26;20.50;38.90
35680;DHT22;21803;53.586;10.040;2023-04-27T17:08:56;20.50;38.90
35680;DHT22;21803;53.586;10.040;2023-04-27T17:11:21;20.50;39.00
35680;DHT22;21803;53.586;10.040;2023-04-27T17:13:48;20.50;39.00
35680;DHT22;21803;53.586;10.040;2023-04-27T17:16:17;20.50;38.90
35680;DHT22;21803;53.586;10.040;2023-04-27T17:18:45;20.50;39.00
35680;DHT22;21803;53.586;10.040;2023-04-27T17:21:11;20.50;39.00
35680;DHT22;21803;53.586;10.040;2023-04-27T17:23:37;20.50;38.90
35680;DHT22;21803;53.586;10.040;2023-04-27T17:26:03;20.50;38.90
35680;DHT22;21803;53.586;10.040;2023-04-27T17:28:29;20.50;38.90
35680;DHT22;21803;53.586;10.040;2023-04-27T17:30:55;20.50;38.90
35680;DHT22;21803;53.586;10.040;2023-04-27T17:33:21;20.50;39.00
35680;DHT22;21803;53.586;10.040;2023-04-27T17:35:46;20.50;39.00
35680;DHT22;21803;53.586;10.040;2023-04-27T17:38:13;20.50;38.90
35680;DHT22;21803;53.586;10.040;2023-04-27T17:40:38;20.50;39.00
35680;DHT22;21803;53.586;10.040;2023-04-27T17:43:04;20.50;39.00
35680;DHT22;21803;53.586;10.040;2023-04-27T17:45:29;20.50;39.00
35680;DHT22;21803;53.586;10.040;2023-04-27T17:47:56;20.50;39.00
35680;DHT22;21803;53.586;10.040;2023-04-27T17:50:23;20.50;39.00
35680;DHT22;21803;53.586;10.040;2023-04-27T17:52:49;20.50;39.00
35680;DHT22;21803;53.586;10.040;2023-04-27T17:55:19;20.50;39.00
35680;DHT22;21803;53.586;10.040;2023-04-27T17:57:45;20.50;39.00
35680;DHT22;21803;53.586;10.040;2023-04-27T18:00:11;20.40;39.00
35680;DHT22;21803;53.586;10.040;2023-04-27T18:02:37;20.50;39.10
35680;DHT22;21803;53.586;10.040;2023-04-27T18:05:04;20.50;39.00
35680;DHT22;21803;53.586;10.040;2023-04-27T18:07:30;20.50;39.00
35680;DHT22;21803;53.586;10.040;2023-04-27T18:09:55;20.50;39.00
35680;DHT22;21803;53.586;10.040;2023-04-27T18:12:21;20.50;39.00
35680;DHT22;21803;53.586;10.040;2023-04-27T18:14:47;20.50;39.00
35680;DHT22;21803;53.586;10.040;2023-04-27T18:17:15;20.50;39.00
35680;DHT22;21803;53.586;10.040;2023-04-27T18:19:40;20.50;39.00
35680;DHT22;21803;53.586;10.040;2023-04-27T18:22:06;20.50;39.10
35680;DHT22;21803;53.586;10.040;2023-04-27T18:24:32;20.50;39.00
35680;DHT22;21803;53.586;10.040;2023-04-27T18:26:57;20.50;39.00
35680;DHT22;21803;53.586;10.040;2023-04-27T18:29:24;20.50;39.10
35680;DHT22;21803;53.586;10.040;2023-04-27T18:31:50;20.50;39.10
35680;DHT22;21803;53.586;10.040;2023-04-27T18:34:17;20.50;39.10
35680;DHT22;21803;53.586;10.040;2023-04-27T18:36:43;20.40;39.00
35680;DHT22;21803;53.586;10.040;2023-04-27T18:39:12;20.50;39.10
35680;DHT22;21803;53.586;10.040;2023-04-27T18:41:38;20.50;39.00
35680;DHT22;21803;53.586;10.040;2023-04-27T18:44:04;20.40;39.00
35680;DHT22;21803;53.586;10.040;2023-04-27T18:46:30;20.40;39.00
35680;DHT22;21803;53.586;10.040;2023-04-27T18:48:56;20.40;39.00
35680;DHT22;21803;53.586;10.040;2023-04-27T18:51:21;20.40;39.00
35680;DHT22;21803;53.586;10.040;2023-04-27T18:53:56;20.40;39.00
35680;DHT22;21803;53.586;10.040;2023-04-27T18:56:22;20.40;39.00
35680;DHT22;21803;53.586;10.040;2023-04-27T18:58:48;20.40;39.00
35680;DHT22;21803;53.586;10.040;2023-04-27T19:01:21;20.40;39.00
35680;DHT22;21803;53.586;10.040;2023-04-27T19:03:47;20.50;39.00
35680;DHT22;21803;53.586;10.040;2023-04-27T19:06:13;20.40;39.00
35680;DHT22;21803;53.586;10.040;2023-04-27T19:08:39;20.40;39.00
35680;DHT22;21803;53.586;10.040;2023-04-27T19:11:05;20.40;39.00
35680;DHT22;21803;53.586;10.040;2023-04-27T19:13:30;20.40;39.00
35680;DHT22;21803;53.586;10.040;2023-04-27T19:15:56;20.40;39.00
35680;DHT22;21803;53.586;10.040;2023-04-27T19:18:23;20.40;39.00
35680;DHT22;21803;53.586;10.040;2023-04-27T19:20:49;20.40;39.00
35680;DHT22;21803;53.586;10.040;2023-04-27T19:23:14;20.40;38.90
35680;DHT22;21803;53.586;10.040;2023-04-27T19:25:41;20.40;38.90